Lily, Wisconsin
Current Conditions -  °F | °C
As of 2:15 AM on Friday 24 Oct 2014 (Local Time) from KAIG Reporting Station
Moderate Fog Moderate Fog  
Wind Chill: 41°   Ceiling: 300
Heat Index: 44°   Visibility: 0.5mi
Dew Point: 44°   Wind: 6mph
Humidity: 100%   Direction: 280°W
Pressure: 30.01"   Gusts: NA
Location:  45.261°N, 88.731°W
Report Text: KAIG 240715Z AUTO 28005KT 1/2SM FG OVC003 07/07 A3001 RMK AO2 T00670067
Loading
Personal Weather Stations






























Interactive Weather Map
Tropical Storm Tracking
New forecast layout! Learn more

10-Day Weather Forecast

Advertisements
Track Severe Weather on mobile